VYYY/RGN METAR and TAF weather

Enter ICAO airport designator
Station Type Date Time Source
VYYY METAR 2019/02/22 22:30 UTC NOAA

VYYY 222230Z 02002KT 5000 BR NSC 22/21 Q1009


Station Type Date Time Source
VYYY Decoded METAR 2019/02/22 22:30 UTC NOAA

Yangon, Myanmar (VYYY) 16-46N 096-10E 15M
Feb 22, 2019 - 05:30 PM EST / 2019.02.22 2230 UTC
Wind: from the NNE (020 degrees) at 2 MPH (2 KT):0
Visibility: 3 mile(s):0
Weather: mist
Temperature: 71 F (22 C)
Dew Point: 69 F (21 C)
Relative Humidity: 94%
Pressure (altimeter): 29.80 in. Hg (1009 hPa)
ob: VYYY 222230Z 02002KT 5000 BR NSC 22/21 Q1009
cycle: 22

Station Type Date Time Source
VYYY TAF 2019/02/22 18:39 UTC NOAA

TAF TAF VYYY 221700Z 2218/2318 23004KT 7000 NSC
TEMPO 2218/2224 04003KT 5000 HZ


Example: see airport list